createdAt,value
2023-05-25T00:01:00.414Z,9.82
2023-05-25T00:04:04.078Z,9.84
2023-05-25T00:07:05.760Z,9.75
2023-05-25T00:10:07.577Z,9.79
2023-05-25T00:13:10.177Z,9.60
2023-05-25T00:16:11.627Z,9.43
2023-05-25T00:19:13.179Z,9.34
2023-05-25T00:22:14.577Z,9.36
2023-05-25T00:25:16.111Z,9.26
2023-05-25T00:28:17.500Z,9.48
2023-05-25T00:31:18.963Z,9.60
2023-05-25T00:34:20.880Z,9.74
2023-05-25T00:37:22.319Z,9.85
2023-05-25T00:40:23.724Z,9.96
2023-05-25T00:43:25.161Z,10.10
2023-05-25T00:46:26.842Z,10.14
2023-05-25T00:49:28.277Z,10.13
2023-05-25T00:52:29.639Z,10.35
2023-05-25T00:55:31.243Z,10.37
2023-05-25T00:58:33.292Z,10.26
2023-05-25T01:01:39.955Z,10.37
2023-05-25T01:04:45.126Z,10.28
2023-05-25T01:07:46.530Z,10.45
2023-05-25T01:10:51.520Z,10.28
2023-05-25T01:13:52.972Z,10.07
2023-05-25T01:16:56.826Z,9.91
2023-05-25T01:23:06.031Z,9.92
2023-05-25T01:26:10.028Z,9.91
2023-05-25T01:29:11.423Z,9.75
2023-05-25T01:32:13.180Z,9.83
2023-05-25T01:35:14.680Z,9.78
2023-05-25T01:38:17.735Z,9.75
2023-05-25T01:41:19.125Z,9.51
2023-05-25T01:44:21.024Z,9.50
2023-05-25T01:47:29.385Z,9.32
2023-05-25T01:50:31.504Z,9.53
2023-05-25T01:53:36.887Z,9.45
2023-05-25T01:56:38.283Z,9.12
2023-05-25T01:59:39.741Z,9.23
2023-05-25T02:18:58.096Z,9.58
2023-05-25T02:21:59.559Z,9.42
2023-05-25T02:25:01.079Z,9.13
2023-05-25T02:28:02.553Z,9.26
2023-05-25T02:31:03.996Z,9.43
2023-05-25T02:34:05.512Z,9.45
2023-05-25T02:37:06.988Z,9.51
2023-05-25T02:40:09.406Z,9.58
2023-05-25T02:43:10.880Z,9.55
2023-05-25T02:46:12.329Z,9.65
2023-05-25T02:49:14.015Z,9.69
2023-05-25T02:52:15.463Z,9.76
2023-05-25T02:55:18.876Z,9.76
2023-05-25T02:58:20.398Z,9.54
2023-05-25T03:01:21.871Z,9.75
2023-05-25T03:04:23.314Z,9.72
2023-05-25T03:07:26.741Z,9.71
2023-05-25T03:10:28.591Z,9.54
2023-05-25T03:13:30.045Z,9.53
2023-05-25T03:16:31.671Z,9.55
2023-05-25T03:19:33.591Z,9.60
2023-05-25T03:22:35.019Z,9.57
2023-05-25T03:25:36.776Z,9.74
2023-05-25T03:28:38.212Z,9.69
2023-05-25T03:31:39.691Z,9.72
2023-05-25T03:34:41.143Z,9.66
2023-05-25T03:37:42.569Z,9.72
2023-05-25T03:40:43.986Z,9.64
2023-05-25T03:43:45.541Z,9.56
2023-05-25T03:46:47.012Z,9.53
2023-05-25T03:49:48.482Z,9.41
2023-05-25T03:52:49.881Z,9.47
2023-05-25T03:55:52.481Z,9.37
2023-05-25T03:58:54.117Z,9.18
2023-05-25T04:01:55.534Z,9.27
2023-05-25T04:04:57.187Z,9.19
2023-05-25T04:07:59.260Z,8.97
2023-05-25T04:11:01.027Z,9.12
2023-05-25T04:14:02.519Z,9.01
2023-05-25T04:17:04.015Z,8.85
2023-05-25T04:20:06.997Z,9.00
2023-05-25T04:23:11.470Z,9.11
2023-05-25T04:26:13.364Z,8.98
2023-05-25T04:29:14.815Z,9.00
2023-05-25T04:32:17.984Z,9.07
2023-05-25T04:35:20.915Z,9.06
2023-05-25T04:38:22.817Z,9.10
2023-05-25T04:41:25.842Z,9.12
2023-05-25T04:44:29.924Z,9.00
2023-05-25T04:47:31.385Z,8.88
2023-05-25T04:50:32.818Z,8.89
2023-05-25T04:53:35.350Z,9.05
2023-05-25T04:56:36.784Z,9.07
2023-05-25T04:59:38.211Z,8.91
2023-05-25T05:02:39.831Z,8.86
2023-05-25T05:05:41.342Z,8.92
2023-05-25T05:08:42.740Z,8.89
2023-05-25T05:11:44.144Z,8.95
2023-05-25T05:14:45.653Z,8.93
2023-05-25T05:17:47.724Z,9.08
2023-05-25T05:20:49.227Z,9.17
2023-05-25T05:23:51.267Z,8.98
2023-05-25T05:26:58.501Z,9.27
2023-05-25T05:30:00.516Z,9.12
2023-05-25T05:33:02.070Z,9.15
2023-05-25T05:36:04.752Z,9.20
2023-05-25T05:39:06.231Z,9.33
2023-05-25T05:42:08.207Z,9.38
2023-05-25T05:45:09.813Z,9.63
2023-05-25T05:48:11.275Z,9.70
2023-05-25T05:51:12.739Z,9.82
2023-05-25T05:54:14.151Z,10.04
2023-05-25T05:57:15.575Z,10.11
2023-05-25T06:00:17.294Z,10.36
2023-05-25T06:03:18.755Z,10.23
2023-05-25T06:06:20.194Z,10.37
2023-05-25T06:09:21.629Z,10.47
2023-05-25T06:12:23.037Z,10.49
2023-05-25T06:15:24.451Z,10.53
2023-05-25T06:18:25.999Z,10.59
2023-05-25T06:21:27.523Z,10.84
2023-05-25T06:24:29.023Z,11.00
2023-05-25T06:27:30.595Z,11.11
2023-05-25T06:30:32.151Z,11.12
2023-05-25T06:33:33.627Z,11.42
2023-05-25T06:36:35.067Z,11.69
2023-05-25T06:39:36.500Z,11.85
2023-05-25T06:42:37.948Z,11.87
2023-05-25T06:45:39.392Z,11.90
2023-05-25T06:48:40.870Z,11.99
2023-05-25T06:51:42.313Z,12.19
2023-05-25T06:54:43.703Z,12.44
2023-05-25T06:57:45.130Z,12.78
2023-05-25T07:00:46.992Z,13.21
2023-05-25T07:03:48.797Z,13.45
2023-05-25T07:06:50.234Z,13.61
2023-05-25T07:09:51.636Z,13.71
2023-05-25T07:12:53.031Z,13.98
2023-05-25T07:15:54.497Z,14.25
2023-05-25T07:18:57.150Z,14.39
2023-05-25T07:22:00.042Z,14.58
2023-05-25T07:25:01.498Z,15.02
2023-05-25T07:28:03.031Z,14.62
2023-05-25T07:31:05.033Z,14.73
2023-05-25T07:34:06.470Z,14.68
2023-05-25T07:37:07.976Z,14.42
2023-05-25T07:40:09.632Z,14.54
2023-05-25T07:43:11.050Z,14.69
2023-05-25T07:46:12.497Z,14.84
2023-05-25T07:49:16.347Z,14.94
2023-05-25T07:52:18.971Z,15.21
2023-05-25T07:55:20.450Z,15.24
2023-05-25T07:58:21.956Z,15.15
2023-05-25T08:01:26.767Z,15.55
2023-05-25T08:04:28.709Z,15.19
2023-05-25T08:07:30.245Z,15.34
2023-05-25T08:10:32.423Z,15.80
2023-05-25T08:13:33.949Z,15.60
2023-05-25T08:16:36.495Z,15.26
2023-05-25T08:19:37.959Z,15.60
2023-05-25T08:22:39.426Z,15.56
2023-05-25T08:25:41.187Z,15.33
2023-05-25T08:28:43.336Z,15.40
2023-05-25T08:31:49.455Z,14.84
2023-05-25T08:34:51.035Z,14.53
2023-05-25T08:41:55.497Z,15.03
2023-05-25T08:44:56.894Z,15.32
2023-05-25T08:47:58.916Z,15.64
2023-05-25T08:51:01.008Z,15.89
2023-05-25T08:54:04.393Z,16.24
2023-05-25T08:57:15.152Z,16.67
2023-05-25T09:00:16.706Z,16.85
2023-05-25T09:03:18.542Z,16.45
2023-05-25T09:06:20.024Z,16.56
2023-05-25T09:09:21.572Z,17.06
2023-05-25T09:12:23.622Z,17.75
2023-05-25T09:15:25.413Z,18.04
2023-05-25T09:18:26.837Z,18.31
2023-05-25T09:21:28.226Z,18.37
2023-05-25T09:24:29.617Z,19.00
2023-05-25T09:27:31.004Z,19.00
2023-05-25T09:30:33.248Z,19.00
2023-05-25T09:33:36.827Z,19.20
2023-05-25T09:36:41.198Z,18.44
2023-05-25T09:39:43.072Z,18.36
2023-05-25T09:42:44.676Z,18.24
2023-05-25T09:45:46.592Z,18.07
2023-05-25T09:48:48.582Z,18.57
2023-05-25T09:51:50.146Z,18.52
2023-05-25T09:54:51.733Z,18.53
2023-05-25T09:57:53.757Z,18.86
2023-05-25T10:00:55.375Z,19.09
2023-05-25T10:04:04.379Z,19.22
2023-05-25T10:07:06.440Z,18.90
2023-05-25T10:10:08.488Z,18.69
2023-05-25T10:13:09.869Z,18.66
2023-05-25T10:16:13.292Z,18.41
2023-05-25T10:19:18.102Z,18.38
2023-05-25T10:22:19.990Z,18.61
2023-05-25T10:25:36.047Z,18.47
2023-05-25T10:28:37.656Z,18.30
2023-05-25T10:31:39.132Z,18.09
2023-05-25T10:34:40.897Z,17.99
2023-05-25T10:37:42.303Z,18.06
2023-05-25T10:40:44.572Z,17.81
2023-05-25T10:43:45.950Z,17.91
2023-05-25T10:46:47.502Z,17.96
2023-05-25T10:49:53.774Z,17.96
2023-05-25T10:53:02.022Z,18.39
2023-05-25T10:56:03.999Z,18.41
2023-05-25T10:59:05.443Z,18.50
2023-05-25T11:02:08.992Z,18.57
2023-05-25T11:05:26.185Z,18.83
2023-05-25T11:08:29.573Z,19.27
2023-05-25T11:11:52.690Z,19.63
2023-05-25T11:15:15.039Z,19.23
2023-05-25T11:18:16.423Z,19.16
2023-05-25T11:21:27.196Z,18.97
2023-05-25T11:24:28.711Z,18.77
2023-05-25T11:27:30.487Z,18.78
2023-05-25T11:30:32.043Z,19.00
2023-05-25T11:33:33.413Z,19.15
2023-05-25T11:36:35.157Z,19.81
2023-05-25T11:39:36.553Z,20.23
2023-05-25T11:42:38.269Z,19.84
2023-05-25T11:45:39.645Z,19.76
2023-05-25T11:48:59.319Z,19.62
2023-05-25T11:52:03.989Z,19.50
2023-05-25T11:55:10.441Z,20.08
2023-05-25T11:58:11.787Z,20.08
2023-05-25T12:01:16.386Z,19.57
2023-05-25T12:04:17.866Z,19.42
2023-05-25T12:07:19.297Z,19.61
2023-05-25T12:10:20.733Z,19.60
2023-05-25T12:13:22.217Z,19.75
2023-05-25T12:16:23.829Z,20.49
2023-05-25T12:19:25.266Z,20.67
2023-05-25T12:22:26.707Z,20.87
2023-05-25T12:25:38.603Z,20.83
2023-05-25T12:29:20.530Z,21.00
2023-05-25T12:32:21.915Z,20.82
2023-05-25T12:35:23.378Z,20.91
2023-05-25T12:38:24.722Z,21.14
2023-05-25T12:41:26.317Z,21.13
2023-05-25T12:44:33.678Z,21.87
2023-05-25T12:47:35.150Z,21.24
2023-05-25T12:50:37.181Z,20.86
2023-05-25T12:53:48.159Z,20.80
2023-05-25T12:56:58.791Z,20.95
2023-05-25T13:00:00.203Z,21.09
2023-05-25T13:03:01.764Z,20.84
2023-05-25T13:06:03.390Z,21.61
2023-05-25T13:09:05.161Z,21.49
2023-05-25T13:12:08.292Z,20.82
2023-05-25T13:15:09.822Z,20.68
2023-05-25T13:18:11.274Z,21.10
2023-05-25T13:21:12.654Z,22.14
2023-05-25T13:24:14.146Z,22.61
2023-05-25T13:27:15.534Z,22.46
2023-05-25T13:30:17.071Z,22.10
2023-05-25T13:33:18.498Z,22.18
2023-05-25T13:36:19.845Z,22.81
2023-05-25T13:39:22.680Z,22.86
2023-05-25T13:42:24.108Z,23.62
2023-05-25T13:45:25.459Z,22.73
2023-05-25T13:48:27.104Z,23.81
2023-05-25T13:51:28.521Z,23.42
2023-05-25T13:54:29.890Z,22.46
2023-05-25T13:57:31.250Z,21.80
2023-05-25T14:00:32.903Z,21.52
2023-05-25T14:03:34.453Z,22.03
2023-05-25T14:06:35.984Z,21.61
2023-05-25T14:09:37.409Z,21.49
2023-05-25T14:12:38.820Z,21.47
2023-05-25T14:15:40.331Z,21.42
2023-05-25T14:18:41.949Z,21.23
2023-05-25T14:21:43.302Z,21.48
2023-05-25T14:24:44.669Z,22.15
2023-05-25T14:27:46.169Z,22.06
2023-05-25T14:30:47.528Z,22.29
2023-05-25T14:33:48.891Z,22.44
2023-05-25T14:36:50.252Z,22.81
2023-05-25T14:39:51.618Z,22.77
2023-05-25T14:42:55.400Z,22.08
2023-05-25T14:45:56.814Z,21.42
2023-05-25T14:48:58.209Z,21.35
2023-05-25T14:51:59.579Z,21.61
2023-05-25T14:55:00.996Z,21.73
2023-05-25T14:58:02.484Z,21.72
2023-05-25T15:01:04.950Z,21.90
2023-05-25T15:04:06.464Z,22.13
2023-05-25T15:07:08.017Z,22.15
2023-05-25T15:10:09.527Z,22.57
2023-05-25T15:13:13.092Z,22.24
2023-05-25T15:16:14.949Z,22.03
2023-05-25T15:19:17.706Z,22.25
2023-05-25T15:22:19.412Z,22.32
2023-05-25T15:25:34.559Z,22.46
2023-05-25T15:28:37.429Z,22.60
2023-05-25T15:31:38.816Z,22.58
2023-05-25T15:34:40.608Z,22.59
2023-05-25T15:37:42.997Z,22.23
2023-05-25T15:40:44.385Z,22.03
2023-05-25T15:43:58.209Z,21.69
2023-05-25T15:46:59.939Z,21.89
2023-05-25T15:50:01.304Z,21.85
2023-05-25T15:53:02.668Z,21.65
2023-05-25T15:56:04.083Z,21.79
2023-05-25T15:59:05.441Z,21.94
2023-05-25T16:02:06.865Z,22.12
2023-05-25T16:05:09.622Z,21.99
2023-05-25T16:08:11.727Z,22.10
2023-05-25T16:11:13.133Z,22.23
2023-05-25T16:14:14.539Z,22.31
2023-05-25T16:17:15.976Z,22.25
2023-05-25T16:20:17.374Z,22.08
2023-05-25T16:23:18.803Z,22.05
2023-05-25T16:26:20.153Z,22.11
2023-05-25T16:29:21.680Z,22.31
2023-05-25T16:32:23.128Z,22.03
2023-05-25T16:35:24.538Z,21.60
2023-05-25T16:38:26.011Z,21.80
2023-05-25T16:41:27.540Z,21.95
2023-05-25T16:44:28.900Z,22.05
2023-05-25T16:47:30.538Z,22.12
2023-05-25T16:50:32.007Z,22.12
2023-05-25T16:53:33.382Z,21.78
2023-05-25T16:56:35.542Z,21.67
2023-05-25T16:59:37.081Z,21.52
2023-05-25T17:02:38.513Z,21.54
2023-05-25T17:05:39.944Z,21.57
2023-05-25T17:08:41.306Z,21.51
2023-05-25T17:11:42.871Z,21.30
2023-05-25T17:14:44.222Z,21.34
2023-05-25T17:17:45.696Z,21.07
2023-05-25T17:20:47.193Z,21.06
2023-05-25T17:23:50.310Z,21.12
2023-05-25T17:26:51.803Z,21.07
2023-05-25T17:29:53.379Z,21.01
2023-05-25T17:33:01.268Z,20.90
2023-05-25T17:36:02.758Z,20.80
2023-05-25T17:39:04.843Z,20.89
2023-05-25T17:42:06.670Z,20.80
2023-05-25T17:45:11.442Z,20.59
2023-05-25T17:48:12.869Z,20.62
2023-05-25T17:51:14.527Z,20.62
2023-05-25T17:54:18.593Z,20.37
2023-05-25T17:57:19.940Z,20.28
2023-05-25T18:00:23.197Z,20.17
2023-05-25T18:03:25.876Z,20.06
2023-05-25T18:06:29.072Z,19.88
2023-05-25T18:09:30.699Z,19.77
2023-05-25T18:12:32.114Z,19.51
2023-05-25T18:15:34.192Z,19.36
2023-05-25T18:18:35.752Z,19.26
2023-05-25T18:21:38.068Z,19.14
2023-05-25T18:24:39.532Z,19.07
2023-05-25T18:27:40.945Z,18.86
2023-05-25T18:30:42.562Z,18.76
2023-05-25T18:33:44.048Z,18.68
2023-05-25T18:36:45.550Z,18.51
2023-05-25T18:39:46.898Z,18.38
2023-05-25T18:42:48.264Z,18.25
2023-05-25T18:45:49.653Z,18.18
2023-05-25T18:48:51.086Z,17.93
2023-05-25T18:51:52.518Z,17.95
2023-05-25T18:54:53.949Z,17.78
2023-05-25T18:57:55.924Z,17.68
2023-05-25T19:00:57.291Z,17.63
2023-05-25T19:03:59.096Z,17.50
2023-05-25T19:07:00.563Z,17.25
2023-05-25T19:10:01.924Z,17.06
2023-05-25T19:13:03.310Z,16.98
2023-05-25T19:16:04.804Z,16.83
2023-05-25T19:19:06.198Z,16.69
2023-05-25T19:22:07.593Z,16.76
2023-05-25T19:25:08.938Z,16.80
2023-05-25T19:28:10.465Z,16.70
2023-05-25T19:31:11.897Z,16.56
2023-05-25T19:34:13.275Z,16.48
2023-05-25T19:37:14.664Z,16.33
2023-05-25T19:40:16.103Z,16.13
2023-05-25T19:43:17.464Z,16.02
2023-05-25T19:46:18.988Z,15.86
2023-05-25T19:49:20.823Z,15.79
2023-05-25T19:52:22.204Z,15.58
2023-05-25T19:55:26.180Z,15.47
2023-05-25T19:58:27.541Z,15.32
2023-05-25T20:01:29.094Z,15.36
2023-05-25T20:04:30.504Z,15.26
2023-05-25T20:07:31.842Z,15.03
2023-05-25T20:10:38.740Z,14.90
2023-05-25T20:13:41.330Z,14.78
2023-05-25T20:16:42.715Z,14.76
2023-05-25T20:19:44.175Z,14.80
2023-05-25T20:22:45.581Z,14.72
2023-05-25T20:25:47.217Z,14.65
2023-05-25T20:28:48.779Z,14.57
2023-05-25T20:31:50.358Z,14.42
2023-05-25T20:34:51.780Z,14.39
2023-05-25T20:37:53.138Z,14.31
2023-05-25T20:40:54.532Z,14.17
2023-05-25T20:43:55.901Z,14.09
2023-05-25T20:46:57.266Z,13.92
2023-05-25T20:49:58.645Z,13.86
2023-05-25T20:53:00.041Z,13.68
2023-05-25T20:56:01.479Z,13.69
2023-05-25T20:59:02.858Z,13.68
2023-05-25T21:02:04.378Z,13.70
2023-05-25T21:05:05.916Z,13.64
2023-05-25T21:08:07.374Z,13.41
2023-05-25T21:11:09.651Z,13.44
2023-05-25T21:14:11.032Z,13.31
2023-05-25T21:17:12.467Z,13.17
2023-05-25T21:20:13.901Z,13.04
2023-05-25T21:23:15.299Z,13.08
2023-05-25T21:26:16.659Z,12.93
2023-05-25T21:29:18.040Z,13.00
2023-05-25T21:32:19.424Z,13.04
2023-05-25T21:35:20.888Z,12.84
2023-05-25T21:38:22.292Z,12.74
2023-05-25T21:41:23.708Z,12.83
2023-05-25T21:44:25.051Z,12.64
2023-05-25T21:47:26.450Z,12.53
2023-05-25T21:50:28.480Z,12.53
2023-05-25T21:53:29.885Z,12.37
2023-05-25T21:56:31.305Z,12.34
2023-05-25T21:59:32.671Z,12.37
2023-05-25T22:02:34.139Z,12.34
2023-05-25T22:05:35.532Z,12.34
2023-05-25T22:08:37.065Z,12.28
2023-05-25T22:11:39.877Z,12.10
2023-05-25T22:14:41.252Z,12.29
2023-05-25T22:17:42.664Z,12.18
2023-05-25T22:20:44.131Z,12.28
2023-05-25T22:23:45.772Z,12.37
2023-05-25T22:26:47.136Z,12.40
2023-05-25T22:29:48.491Z,12.34
2023-05-25T22:32:49.975Z,12.28
2023-05-25T22:35:51.391Z,12.26
2023-05-25T22:38:52.793Z,12.16
2023-05-25T22:41:54.157Z,12.09
2023-05-25T22:44:55.497Z,11.95
2023-05-25T22:47:57.067Z,12.04
2023-05-25T22:50:58.458Z,12.00
2023-05-25T22:53:59.849Z,11.91
2023-05-25T22:57:04.111Z,11.90
2023-05-25T23:00:05.859Z,11.78
2023-05-25T23:03:07.291Z,11.76
2023-05-25T23:06:08.799Z,11.57
2023-05-25T23:09:11.104Z,11.42
2023-05-25T23:12:12.509Z,11.38
2023-05-25T23:15:13.948Z,11.43
2023-05-25T23:18:15.305Z,11.41
2023-05-25T23:21:16.673Z,11.26
2023-05-25T23:24:18.058Z,11.23
2023-05-25T23:27:19.414Z,11.17
2023-05-25T23:30:20.786Z,11.07
2023-05-25T23:33:22.401Z,11.07
2023-05-25T23:36:26.121Z,11.08
2023-05-25T23:39:27.574Z,11.03
2023-05-25T23:42:29.244Z,10.97
2023-05-25T23:45:30.669Z,10.98
2023-05-25T23:48:32.072Z,10.94
2023-05-25T23:51:33.441Z,10.88
2023-05-25T23:54:34.815Z,10.94
2023-05-25T23:57:36.619Z,10.70
